Capitol Reef, Utah
Current Conditions -  °F | °C
As of 6:53 AM on Tuesday 21 Oct 2014 (Local Time) from KBCE Reporting Station
Few Clouds Few Clouds  
Wind Chill: 30°   Ceiling: Unl
Heat Index: 34°   Visibility: 10mi
Dew Point: 32°   Wind: 5mph
Humidity: 92%   Direction: 210°SSW
Pressure: 30.15"   Gusts: NA
Location:  38.2517°N, 111.706°W
Report Text: KBCE 211253Z AUTO 21004KT 10SM FEW120 01/00 A3015 RMK AO2 SLP145 T00110000 TSNO
Loading
Personal Weather Stations






























Interactive Weather Map
Tropical Storm Tracking
New forecast layout! Learn more

10-Day Weather Forecast

Advertisements
Track Severe Weather on mobile